Time;durP1;ratioP1;P1;durP2;ratioP2;P2;SDS_P1;SDS_P2;PMS_P1;PMS_P2;Temp;Humidity;BMP_temperature;BMP_pressure;BME280_temperature;BME280_humidity;BME280_pressure;Samples;Min_cycle;Max_cycle;Signal;HPM_P1;HPM_P2
2022/04/29 00:02:01;;;;;;;15.00;8.25;;;6.70;99.90;;;;;;5034357;28;20056;-47
2022/04/29 00:04:26;;;;;;;16.85;8.55;;;6.60;99.90;;;;;;5035516;28;20033;-50
2022/04/29 00:06:52;;;;;;;24.73;8.68;;;6.60;99.90;;;;;;5046195;28;20052;-48
2022/04/29 00:09:18;;;;;;;18.02;7.05;;;6.60;99.90;;;;;;5018774;28;20476;-51
2022/04/29 00:11:44;;;;;;;16.85;7.90;;;6.50;99.90;;;;;;5015157;28;20411;-50
2022/04/29 00:14:10;;;;;;;16.27;7.80;;;6.50;99.90;;;;;;5045907;28;20069;-48
2022/04/29 00:16:35;;;;;;;15.30;7.28;;;6.50;99.90;;;;;;5043257;28;20561;-50
2022/04/29 00:19:01;;;;;;;14.52;7.68;;;6.40;99.90;;;;;;5034258;28;20084;-49
2022/04/29 00:21:27;;;;;;;16.85;8.00;;;6.40;99.90;;;;;;4998482;28;20518;-49
2022/04/29 00:23:52;;;;;;;16.02;7.90;;;6.40;99.90;;;;;;5032330;28;20041;-48
2022/04/29 00:26:18;;;;;;;18.17;8.70;;;6.40;99.90;;;;;;5021459;28;20037;-54
2022/04/29 00:28:43;;;;;;;16.35;8.00;;;6.40;99.90;;;;;;5032062;28;20033;-52
2022/04/29 00:31:09;;;;;;;20.75;8.05;;;6.40;99.90;;;;;;5032861;28;20041;-48
2022/04/29 00:33:34;;;;;;;14.23;7.70;;;6.30;99.90;;;;;;5044770;28;20495;-47
2022/04/29 00:36:00;;;;;;;15.13;8.13;;;6.30;99.90;;;;;;5042726;28;20091;-48
2022/04/29 00:38:25;;;;;;;16.83;8.60;;;6.30;99.90;;;;;;5039394;28;20033;-47
2022/04/29 00:40:51;;;;;;;17.20;8.00;;;6.30;99.90;;;;;;5032457;28;20120;-48
2022/04/29 00:43:16;;;;;;;19.63;8.02;;;6.20;99.90;;;;;;5032141;28;20041;-48
2022/04/29 00:45:42;;;;;;;20.20;7.97;;;6.20;99.90;;;;;;5034384;28;20041;-49
2022/04/29 00:48:08;;;;;;;18.23;8.52;;;6.20;99.90;;;;;;5044829;28;20556;-47
2022/04/29 00:50:35;;;;;;;14.73;7.82;;;6.20;99.90;;;;;;5029782;28;20120;-50
2022/04/29 00:53:02;;;;;;;20.48;9.00;;;6.10;99.90;;;;;;5014456;28;20526;-48
2022/04/29 00:55:34;;;;;;;18.10;8.23;;;6.10;99.90;;;;;;5038575;28;20121;-47
2022/04/29 00:58:16;;;;;;;22.27;8.30;;;6.10;99.90;;;;;;5043029;28;20039;-48
2022/04/29 01:00:42;;;;;;;16.58;8.75;;;6.10;99.90;;;;;;5040035;28;20033;-49
2022/04/29 01:03:11;;;;;;;16.10;9.52;;;6.10;99.90;;;;;;5032973;28;20041;-48
2022/04/29 01:05:38;;;;;;;17.08;8.70;;;6.10;99.90;;;;;;5041379;28;20112;-48
2022/04/29 01:08:05;;;;;;;19.15;8.65;;;6.10;99.90;;;;;;5041255;28;20635;-49
2022/04/29 01:10:30;;;;;;;16.73;8.75;;;6.00;99.90;;;;;;5028559;28;20037;-51
2022/04/29 01:12:59;;;;;;;19.50;8.65;;;6.10;99.90;;;;;;5031126;28;20467;-48
2022/04/29 01:15:25;;;;;;;17.55;8.68;;;6.10;99.90;;;;;;5039735;28;20044;-47
2022/04/29 01:17:54;;;;;;;17.52;8.18;;;6.10;99.90;;;;;;5035703;28;20041;-47
2022/04/29 01:20:23;;;;;;;17.85;9.65;;;6.10;99.90;;;;;;5043723;28;20086;-47
2022/04/29 01:22:49;;;;;;;17.63;8.80;;;6.10;99.90;;;;;;5036217;28;20049;-48
2022/04/29 01:25:14;;;;;;;18.58;8.85;;;6.20;99.90;;;;;;5031574;28;20067;-47
2022/04/29 01:27:40;;;;;;;21.02;10.10;;;6.10;99.90;;;;;;5037644;28;20059;-49
2022/04/29 01:30:11;;;;;;;16.85;9.32;;;6.10;99.90;;;;;;5048825;28;20048;-48
2022/04/29 01:32:37;;;;;;;18.45;9.20;;;6.10;99.90;;;;;;5013435;28;20120;-48
2022/04/29 01:35:04;;;;;;;19.52;9.57;;;6.10;99.90;;;;;;5031066;28;20060;-53
2022/04/29 01:37:30;;;;;;;17.95;9.32;;;6.10;99.90;;;;;;5038819;28;20123;-49
2022/04/29 01:39:56;;;;;;;22.70;10.13;;;6.10;99.90;;;;;;5024275;28;20040;-48
2022/04/29 01:42:22;;;;;;;23.30;9.63;;;6.00;99.90;;;;;;5039304;28;20040;-51
2022/04/29 01:44:48;;;;;;;18.85;9.02;;;6.00;99.90;;;;;;5037824;28;20146;-48
2022/04/29 01:47:14;;;;;;;27.15;9.75;;;6.00;99.90;;;;;;5046829;28;20044;-48
2022/04/29 01:49:40;;;;;;;17.90;8.63;;;5.90;99.90;;;;;;5042451;28;20033;-48
2022/04/29 01:52:06;;;;;;;19.83;9.35;;;5.90;99.90;;;;;;5035444;28;20526;-49
2022/04/29 01:54:31;;;;;;;16.77;8.60;;;5.80;99.90;;;;;;5035793;28;20671;-51
2022/04/29 01:56:57;;;;;;;22.00;9.23;;;5.80;99.90;;;;;;5037488;28;20124;-48
2022/04/29 01:59:23;;;;;;;20.15;9.50;;;5.80;99.90;;;;;;5030923;28;20450;-51
2022/04/29 02:01:48;;;;;;;19.02;8.73;;;5.90;99.90;;;;;;5029265;28;20132;-51
2022/04/29 02:04:14;;;;;;;25.33;9.50;;;5.80;99.90;;;;;;5033101;28;20124;-51
2022/04/29 02:06:40;;;;;;;18.90;9.60;;;5.80;99.90;;;;;;5029955;28;20048;-50
2022/04/29 02:09:06;;;;;;;22.77;9.02;;;5.80;99.90;;;;;;5024935;28;20049;-52
2022/04/29 02:11:34;;;;;;;20.95;10.55;;;5.80;99.90;;;;;;5037026;28;20041;-51
2022/04/29 02:14:00;;;;;;;21.15;8.45;;;5.80;99.90;;;;;;5017462;28;20041;-49
2022/04/29 02:16:26;;;;;;;15.18;8.85;;;5.70;99.90;;;;;;5031145;28;20060;-51
2022/04/29 02:18:51;;;;;;;21.02;9.07;;;5.80;99.90;;;;;;5015573;28;20503;-51
2022/04/29 02:21:17;;;;;;;19.88;9.63;;;5.80;99.90;;;;;;5041788;28;20463;-49
2022/04/29 02:23:43;;;;;;;18.25;8.93;;;5.80;99.90;;;;;;5035417;28;20044;-52
2022/04/29 02:26:08;;;;;;;20.98;8.98;;;5.80;99.90;;;;;;5030840;28;20049;-48
2022/04/29 02:28:34;;;;;;;20.98;9.25;;;5.80;99.90;;;;;;5035753;28;20140;-48
2022/04/29 02:31:00;;;;;;;22.80;8.80;;;5.80;99.90;;;;;;5043329;28;20036;-49
2022/04/29 02:33:27;;;;;;;18.40;9.23;;;5.80;99.90;;;;;;5040750;28;20033;-50
2022/04/29 02:35:54;;;;;;;24.33;9.10;;;5.90;99.90;;;;;;5039711;28;20040;-49
2022/04/29 02:38:19;;;;;;;16.15;9.07;;;5.80;99.90;;;;;;5041063;28;20068;-50
2022/04/29 02:40:45;;;;;;;19.48;8.68;;;5.80;99.90;;;;;;5038827;28;20480;-51
2022/04/29 02:43:11;;;;;;;16.73;9.13;;;5.80;99.90;;;;;;5030457;28;20171;-50
2022/04/29 02:45:37;;;;;;;19.02;9.07;;;5.70;99.90;;;;;;5030793;28;20687;-49
2022/04/29 02:48:04;;;;;;;19.05;9.50;;;5.70;99.90;;;;;;5035495;28;20438;-49
2022/04/29 02:50:30;;;;;;;21.08;8.88;;;5.70;99.90;;;;;;5041728;28;20056;-52
2022/04/29 02:52:56;;;;;;;19.00;8.73;;;5.70;99.90;;;;;;5034063;28;20038;-50
2022/04/29 02:55:22;;;;;;;18.77;9.50;;;5.80;99.90;;;;;;5037742;28;20561;-52
2022/04/29 02:57:47;;;;;;;22.27;10.68;;;5.80;99.90;;;;;;5009488;28;20041;-53
2022/04/29 03:00:13;;;;;;;16.75;9.60;;;5.80;99.90;;;;;;5015778;28;20033;-50
2022/04/29 03:02:39;;;;;;;20.02;9.82;;;5.70;99.90;;;;;;5033695;28;20566;-52
2022/04/29 03:05:05;;;;;;;20.23;9.77;;;5.70;99.90;;;;;;5036562;28;20116;-48
2022/04/29 03:07:32;;;;;;;19.85;10.13;;;5.70;99.90;;;;;;5042279;28;20380;-49
2022/04/29 03:09:57;;;;;;;17.77;9.65;;;5.80;99.90;;;;;;5044272;28;20509;-49
2022/04/29 03:12:23;;;;;;;21.63;9.77;;;5.70;99.90;;;;;;5020617;28;20041;-47
2022/04/29 03:14:49;;;;;;;17.48;9.25;;;5.80;99.90;;;;;;5051132;28;20037;-48
2022/04/29 03:20:02;;;;;;;18.40;11.43;;;5.80;99.90;;;;;;5044485;28;20064;-49
2022/04/29 03:22:27;;;;;;;20.95;10.05;;;5.70;99.90;;;;;;5034101;28;20041;-51
2022/04/29 03:24:54;;;;;;;26.40;10.40;;;5.70;99.90;;;;;;5041020;28;20084;-48
2022/04/29 03:27:19;;;;;;;20.13;10.18;;;5.70;99.90;;;;;;5041120;28;20033;-51
2022/04/29 03:29:45;;;;;;;23.33;11.00;;;5.70;99.90;;;;;;4999409;28;20068;-48
2022/04/29 03:32:11;;;;;;;28.27;11.85;;;5.60;99.90;;;;;;5033764;28;20037;-51
2022/04/29 03:34:36;;;;;;;22.65;11.20;;;5.70;99.90;;;;;;5033511;28;20057;-49
2022/04/29 03:37:02;;;;;;;16.98;9.55;;;5.70;99.90;;;;;;5044737;28;20045;-48
2022/04/29 03:39:28;;;;;;;22.52;10.25;;;5.60;99.90;;;;;;5046762;28;20487;-50
2022/04/29 03:41:53;;;;;;;17.90;9.90;;;5.60;99.90;;;;;;5037651;28;20498;-51
2022/04/29 03:44:20;;;;;;;18.90;10.57;;;5.60;99.90;;;;;;5050136;28;20538;-51
2022/04/29 03:46:45;;;;;;;22.58;10.35;;;5.60;99.90;;;;;;5038148;28;20038;-50
2022/04/29 03:51:55;;;;;;;24.92;10.05;;;5.60;99.90;;;;;;5037124;28;20064;-50
2022/04/29 03:54:21;;;;;;;19.42;10.23;;;5.60;99.90;;;;;;5035011;28;20476;-52
2022/04/29 03:56:46;;;;;;;23.33;10.48;;;5.50;99.90;;;;;;5034008;28;20041;-50
2022/04/29 03:59:12;;;;;;;24.92;10.75;;;5.50;99.90;;;;;;5032791;28;20124;-52
2022/04/29 04:01:38;;;;;;;31.52;11.80;;;5.50;99.90;;;;;;5032597;28;20045;-52
2022/04/29 04:04:04;;;;;;;17.10;9.80;;;5.50;99.90;;;;;;5041822;28;20049;-49
2022/04/29 04:09:14;;;;;;;23.02;10.65;;;5.50;99.90;;;;;;5032790;28;20080;-50
2022/04/29 04:11:40;;;;;;;19.63;10.57;;;5.60;99.90;;;;;;5033117;28;20069;-49
2022/04/29 04:14:06;;;;;;;24.02;10.35;;;5.50;99.90;;;;;;5034331;28;20479;-50
2022/04/29 04:16:32;;;;;;;20.80;10.27;;;5.50;99.90;;;;;;5038672;28;20084;-51
2022/04/29 04:18:57;;;;;;;19.80;10.13;;;5.50;99.90;;;;;;5040915;28;20036;-49
2022/04/29 04:21:23;;;;;;;21.25;10.40;;;5.50;99.90;;;;;;5014777;28;20049;-50
2022/04/29 04:23:48;;;;;;;23.35;10.02;;;5.50;99.90;;;;;;5014792;28;20085;-48
2022/04/29 04:26:14;;;;;;;21.15;9.98;;;5.50;99.90;;;;;;5032537;28;20045;-50
2022/04/29 04:28:39;;;;;;;24.92;10.23;;;5.50;99.90;;;;;;5033327;28;20045;-48
2022/04/29 04:31:05;;;;;;;24.30;10.35;;;5.50;99.90;;;;;;5046383;28;20132;-50
2022/04/29 04:33:31;;;;;;;16.75;9.52;;;5.50;99.90;;;;;;5044658;28;20086;-49
2022/04/29 04:35:56;;;;;;;15.50;8.98;;;5.50;99.90;;;;;;5044612;28;20029;-47
2022/04/29 04:38:22;;;;;;;17.88;9.48;;;5.40;99.90;;;;;;5051838;28;20067;-48
2022/04/29 04:40:48;;;;;;;21.60;9.90;;;5.40;99.90;;;;;;5024545;28;20067;-48
2022/04/29 04:43:13;;;;;;;19.13;9.43;;;5.40;99.90;;;;;;5032067;28;20099;-48
2022/04/29 04:45:39;;;;;;;19.17;9.45;;;5.40;99.90;;;;;;5037111;28;20486;-49
2022/04/29 04:48:05;;;;;;;21.95;9.35;;;5.50;99.90;;;;;;5039774;28;20029;-48
2022/04/29 04:50:30;;;;;;;30.27;11.60;;;5.60;99.90;;;;;;5031998;28;20030;-47
2022/04/29 04:52:56;;;;;;;23.35;10.82;;;5.50;99.90;;;;;;5032053;28;20041;-49
2022/04/29 04:55:22;;;;;;;22.83;10.27;;;5.60;99.90;;;;;;5039575;28;20045;-49
2022/04/29 04:57:47;;;;;;;22.42;9.95;;;5.60;99.90;;;;;;5035534;28;20033;-49
2022/04/29 05:00:13;;;;;;;20.27;9.55;;;5.70;99.90;;;;;;5038395;28;20045;-49
2022/04/29 05:02:40;;;;;;;19.70;9.85;;;5.70;99.90;;;;;;5041190;28;20124;-48
2022/04/29 05:05:10;;;;;;;18.60;9.63;;;5.80;99.90;;;;;;5051738;28;20401;-49
2022/04/29 05:07:38;;;;;;;21.52;10.48;;;5.80;99.90;;;;;;5049593;28;20548;-48
2022/04/29 05:10:05;;;;;;;20.77;9.43;;;5.90;99.90;;;;;;5022421;28;20037;-48
2022/04/29 05:12:31;;;;;;;20.67;10.35;;;6.00;99.90;;;;;;5005190;28;20041;-48
2022/04/29 05:14:57;;;;;;;21.10;9.90;;;6.00;99.90;;;;;;5036849;28;20449;-49
2022/04/29 05:17:22;;;;;;;21.35;10.32;;;6.00;99.90;;;;;;5022462;28;20045;-49
2022/04/29 05:19:48;;;;;;;25.40;10.30;;;6.00;99.90;;;;;;5042937;28;20034;-50
2022/04/29 05:22:13;;;;;;;22.00;10.10;;;6.10;99.90;;;;;;5019156;28;20037;-49
2022/04/29 05:24:39;;;;;;;24.75;9.88;;;6.20;99.90;;;;;;5036915;28;20398;-49
2022/04/29 05:27:04;;;;;;;18.92;9.57;;;6.30;99.90;;;;;;5041991;28;20040;-48
2022/04/29 05:29:30;;;;;;;18.70;10.18;;;6.30;99.90;;;;;;5044837;28;20044;-49
2022/04/29 05:31:56;;;;;;;25.95;11.50;;;6.40;99.90;;;;;;5039879;28;20025;-49
2022/04/29 05:34:22;;;;;;;23.30;10.43;;;6.50;99.90;;;;;;5036306;28;20082;-48
2022/04/29 05:36:47;;;;;;;19.42;10.10;;;6.50;99.90;;;;;;5038826;28;20041;-48
2022/04/29 05:42:17;;;;;;;17.80;8.80;;;6.50;99.90;;;;;;5049526;28;20051;-48
2022/04/29 05:44:43;;;;;;;20.70;10.27;;;6.50;99.90;;;;;;5040723;28;20115;-49
2022/04/29 05:47:08;;;;;;;21.17;9.48;;;6.60;99.90;;;;;;5040082;28;20038;-48
2022/04/29 05:49:34;;;;;;;22.50;9.95;;;6.60;99.90;;;;;;5032540;28;20033;-48
2022/04/29 05:52:03;;;;;;;17.95;9.20;;;6.70;99.90;;;;;;5041294;28;20037;-49
2022/04/29 05:54:30;;;;;;;19.92;9.13;;;6.80;99.90;;;;;;5039947;28;20407;-49
2022/04/29 05:56:56;;;;;;;21.65;9.23;;;6.80;99.90;;;;;;5035646;28;20438;-49
2022/04/29 05:59:22;;;;;;;17.70;8.52;;;6.80;99.90;;;;;;5045724;28;20162;-48
2022/04/29 06:01:48;;;;;;;22.65;9.48;;;6.90;99.90;;;;;;5039555;28;20041;-48
2022/04/29 06:04:13;;;;;;;19.67;8.73;;;6.90;99.90;;;;;;5038258;28;20040;-48
2022/04/29 06:06:39;;;;;;;19.17;9.18;;;6.90;99.90;;;;;;5034358;28;20037;-49
2022/04/29 06:09:04;;;;;;;18.63;10.45;;;7.00;99.90;;;;;;5030820;28;20092;-48
2022/04/29 06:11:30;;;;;;;17.85;9.50;;;7.00;99.90;;;;;;5040405;28;20033;-49
2022/04/29 06:13:55;;;;;;;21.98;9.68;;;7.00;99.90;;;;;;5041879;28;20041;-52
2022/04/29 06:16:21;;;;;;;16.58;9.27;;;7.10;99.90;;;;;;5040274;28;20033;-48
2022/04/29 06:18:47;;;;;;;19.52;8.82;;;7.20;99.90;;;;;;5028605;28;20040;-48
2022/04/29 06:21:13;;;;;;;21.52;9.40;;;7.20;99.90;;;;;;5043896;28;20559;-50
2022/04/29 06:23:39;;;;;;;17.95;9.00;;;7.30;99.90;;;;;;5046319;28;20408;-47
2022/04/29 06:26:05;;;;;;;15.77;9.25;;;7.40;99.90;;;;;;5043935;28;20143;-49
2022/04/29 06:28:32;;;;;;;21.58;9.30;;;7.40;99.90;;;;;;5043108;28;20216;-50
2022/04/29 06:30:57;;;;;;;19.92;9.38;;;7.40;99.90;;;;;;5039219;28;20045;-49
2022/04/29 06:33:23;;;;;;;16.45;9.32;;;7.40;99.90;;;;;;5035905;28;20141;-53
2022/04/29 06:35:50;;;;;;;15.98;8.30;;;7.50;99.90;;;;;;5042250;28;20060;-48
2022/04/29 06:38:16;;;;;;;20.90;9.23;;;7.60;99.90;;;;;;5043926;28;20029;-50
2022/04/29 06:40:41;;;;;;;17.15;8.73;;;7.60;99.90;;;;;;5038182;28;20465;-51
2022/04/29 06:43:07;;;;;;;21.98;9.30;;;7.70;99.90;;;;;;5041570;28;20486;-48
2022/04/29 06:45:33;;;;;;;21.77;9.63;;;7.70;99.90;;;;;;5044149;28;20048;-47
2022/04/29 06:47:58;;;;;;;19.85;7.60;;;7.70;99.90;;;;;;5010547;28;20060;-51
2022/04/29 06:50:24;;;;;;;16.70;8.65;;;7.80;99.90;;;;;;5043882;28;20033;-50
2022/04/29 06:52:49;;;;;;;18.40;9.63;;;7.80;99.90;;;;;;5041633;28;20506;-48
2022/04/29 06:55:15;;;;;;;19.30;8.93;;;7.90;99.90;;;;;;5034547;28;20083;-49
2022/04/29 06:57:41;;;;;;;21.95;9.38;;;7.90;99.90;;;;;;5042651;28;20037;-49
2022/04/29 07:00:08;;;;;;;18.02;9.18;;;7.90;99.90;;;;;;5041063;28;20037;-51
2022/04/29 07:02:33;;;;;;;16.95;9.27;;;7.90;99.90;;;;;;5044518;28;20522;-51
2022/04/29 07:04:59;;;;;;;22.05;7.93;;;8.00;99.90;;;;;;5045000;28;20029;-48
2022/04/29 07:07:28;;;;;;;18.30;8.93;;;8.10;99.90;;;;;;5047941;28;20414;-47
2022/04/29 07:09:54;;;;;;;17.83;9.13;;;8.10;99.90;;;;;;5045987;28;20029;-48
2022/04/29 07:12:20;;;;;;;17.75;8.50;;;8.20;99.90;;;;;;5038707;28;20499;-48
2022/04/29 07:14:45;;;;;;;14.65;8.05;;;8.10;99.90;;;;;;5040389;28;20037;-51
2022/04/29 07:17:11;;;;;;;18.88;7.63;;;8.20;99.90;;;;;;5035120;28;20051;-50
2022/04/29 07:19:37;;;;;;;16.00;7.50;;;8.30;99.90;;;;;;5038541;28;20037;-51
2022/04/29 07:22:04;;;;;;;13.68;7.38;;;8.40;99.90;;;;;;5045197;28;20073;-51
2022/04/29 07:24:29;;;;;;;12.82;6.75;;;8.40;99.90;;;;;;5050074;28;20075;-48
2022/04/29 07:26:56;;;;;;;12.38;6.75;;;8.50;99.90;;;;;;5004027;28;20037;-49
2022/04/29 07:29:22;;;;;;;10.57;4.95;;;8.50;99.90;;;;;;5033880;28;20042;-47
2022/04/29 07:31:48;;;;;;;12.15;5.95;;;8.60;99.90;;;;;;5041284;28;20167;-51
2022/04/29 07:34:13;;;;;;;10.30;5.65;;;8.60;99.90;;;;;;5036776;28;20033;-49
2022/04/29 07:42:07;;;;;;;12.40;6.57;;;8.70;99.90;;;;;;5052031;28;20103;-48
2022/04/29 07:44:36;;;;;;;12.32;6.10;;;8.80;99.90;;;;;;5048698;28;20487;-57
2022/04/29 07:47:02;;;;;;;12.07;5.40;;;8.90;99.90;;;;;;5041706;28;20564;-51
2022/04/29 07:49:27;;;;;;;9.32;5.75;;;9.00;99.90;;;;;;5033478;28;20069;-52
2022/04/29 07:51:53;;;;;;;12.23;5.22;;;9.00;99.90;;;;;;5044265;28;20116;-48
2022/04/29 07:54:19;;;;;;;12.13;6.00;;;9.00;99.90;;;;;;5043501;28;20041;-53
2022/04/29 07:56:45;;;;;;;11.93;5.80;;;9.00;99.90;;;;;;5044995;28;20044;-49
2022/04/29 07:59:10;;;;;;;10.43;5.47;;;9.10;99.90;;;;;;5024655;28;20509;-52
2022/04/29 08:01:38;;;;;;;12.10;5.72;;;9.10;99.90;;;;;;5052252;28;20044;-49
2022/04/29 08:04:04;;;;;;;10.75;6.55;;;9.20;99.90;;;;;;5030931;28;20048;-48
2022/04/29 08:06:30;;;;;;;13.57;5.88;;;9.30;99.90;;;;;;5045090;28;20040;-50
2022/04/29 08:08:56;;;;;;;10.07;5.47;;;9.40;99.90;;;;;;5041230;28;20441;-49
2022/04/29 08:11:25;;;;;;;13.93;5.22;;;9.50;99.90;;;;;;5020942;28;20037;-50
2022/04/29 08:13:50;;;;;;;11.73;5.68;;;9.50;99.90;;;;;;5026572;28;20052;-53
2022/04/29 08:16:16;;;;;;;14.50;6.22;;;9.60;99.90;;;;;;5034757;28;20403;-48
2022/04/29 08:18:42;;;;;;;12.07;5.88;;;9.70;99.90;;;;;;5041762;28;20048;-49
2022/04/29 08:21:08;;;;;;;10.63;6.72;;;9.80;99.90;;;;;;5042483;28;20049;-51
2022/04/29 08:23:34;;;;;;;9.73;6.00;;;9.80;99.90;;;;;;5047262;28;20041;-51
2022/04/29 08:26:00;;;;;;;13.25;7.50;;;9.90;99.90;;;;;;5038816;28;20037;-50
2022/04/29 08:28:28;;;;;;;11.88;6.28;;;10.00;99.90;;;;;;5035951;28;20226;-50
2022/04/29 08:30:53;;;;;;;11.75;5.80;;;10.20;99.90;;;;;;5035034;28;20045;-49
2022/04/29 08:33:19;;;;;;;14.57;6.88;;;10.30;99.90;;;;;;5031775;28;20048;-51
2022/04/29 08:35:44;;;;;;;12.85;5.63;;;10.40;99.90;;;;;;5036267;28;20122;-48
2022/04/29 08:38:11;;;;;;;12.18;5.55;;;10.40;99.90;;;;;;5032250;28;20155;-50
2022/04/29 08:40:44;;;;;;;12.45;5.82;;;10.40;99.90;;;;;;5031193;28;20065;-49
2022/04/29 08:43:12;;;;;;;9.02;6.03;;;10.40;99.90;;;;;;5031172;28;20042;-47
2022/04/29 08:45:38;;;;;;;13.40;6.85;;;10.40;99.90;;;;;;5032357;28;20040;-50
2022/04/29 08:48:04;;;;;;;9.80;6.10;;;10.40;99.90;;;;;;5032468;28;20041;-49
2022/04/29 08:50:31;;;;;;;10.77;5.53;;;10.50;99.90;;;;;;5034538;28;20041;-48
2022/04/29 08:52:57;;;;;;;12.38;5.60;;;10.60;99.90;;;;;;5034277;28;20525;-48
2022/04/29 09:00:58;;;;;;;10.93;6.13;;;10.70;99.90;;;;;;5022168;28;20099;-50
2022/04/29 09:03:23;;;;;;;10.70;6.03;;;10.60;99.90;;;;;;5039204;28;20116;-51
2022/04/29 09:05:50;;;;;;;11.85;5.65;;;10.60;99.90;;;;;;5043655;28;20376;-52
2022/04/29 09:08:18;;;;;;;11.55;5.25;;;10.60;99.90;;;;;;5013277;28;20494;-50
2022/04/29 09:10:51;;;;;;;14.65;6.30;;;10.60;99.90;;;;;;5038224;28;20510;-48
2022/04/29 09:13:30;;;;;;;19.02;5.55;;;10.60;99.90;;;;;;5038762;28;20112;-48
2022/04/29 09:16:04;;;;;;;10.18;4.85;;;10.60;99.90;;;;;;5035103;28;20030;-50
2022/04/29 09:18:39;;;;;;;10.23;5.00;;;10.60;99.90;;;;;;5020590;28;20406;-52
2022/04/29 09:21:07;;;;;;;10.75;5.57;;;10.80;99.90;;;;;;5035680;28;20040;-48
2022/04/29 09:23:42;;;;;;;10.20;5.68;;;11.00;99.90;;;;;;5035968;28;20534;-48
2022/04/29 09:26:21;;;;;;;9.02;4.30;;;11.10;99.90;;;;;;5018956;28;20504;-50
2022/04/29 09:28:47;;;;;;;11.00;4.68;;;11.30;99.60;;;;;;5023276;28;20114;-48
2022/04/29 09:31:14;;;;;;;7.03;4.45;;;11.40;99.10;;;;;;5041366;28;20052;-49
2022/04/29 09:33:51;;;;;;;10.73;4.50;;;11.40;99.70;;;;;;5040066;28;20044;-48
2022/04/29 09:36:24;;;;;;;10.48;4.70;;;11.40;98.90;;;;;;5033948;28;20589;-50
2022/04/29 09:41:39;;;;;;;7.30;5.00;;;11.50;97.90;;;;;;5042860;28;20128;-52
2022/04/29 09:44:05;;;;;;;10.80;4.90;;;11.40;99.60;;;;;;5050838;28;20486;-49
2022/04/29 09:46:30;;;;;;;7.72;4.43;;;11.30;98.90;;;;;;5033649;28;20167;-48
2022/04/29 09:49:06;;;;;;;9.45;4.75;;;11.30;98.50;;;;;;5076354;22;20545;-51
2022/04/29 09:51:48;;;;;;;5.55;3.60;;;11.20;98.20;;;;;;5091439;28;20060;-51
2022/04/29 09:54:16;;;;;;;;;;;11.30;98.20;;;;;;5091863;28;20075;-51
2022/04/29 09:56:43;;;;;;;10.15;4.80;;;11.30;98.10;;;;;;5091486;28;20420;-51
2022/04/29 09:59:09;;;;;;;13.48;5.25;;;11.30;97.90;;;;;;5093814;28;20032;-51
2022/04/29 10:01:35;;;;;;;8.35;5.43;;;11.20;97.70;;;;;;5095768;28;20047;-51
2022/04/29 10:04:01;;;;;;;10.23;4.90;;;11.20;97.60;;;;;;5094224;28;20036;-51
2022/04/29 10:06:28;;;;;;;11.93;4.80;;;11.10;98.30;;;;;;5095579;28;20497;-51
2022/04/29 10:08:59;;;;;;;7.10;4.65;;;11.10;98.30;;;;;;5094902;28;20140;-51
2022/04/29 10:11:27;;;;;;;13.90;4.70;;;11.10;98.00;;;;;;5095481;28;20095;-51
2022/04/29 10:13:53;;;;;;;11.32;4.57;;;11.10;98.40;;;;;;5095385;28;20047;-51
2022/04/29 10:16:19;;;;;;;7.50;4.50;;;11.10;98.00;;;;;;5095162;28;20493;-51
2022/04/29 10:21:45;;;;;;;8.38;4.40;;;11.10;97.90;;;;;;5095104;28;20126;-51
2022/04/29 10:24:11;;;;;;;6.93;4.13;;;11.20;97.90;;;;;;5095245;28;20086;-51
2022/04/29 10:26:36;;;;;;;9.00;4.10;;;11.10;98.20;;;;;;5095157;28;20513;-51
2022/04/29 10:29:03;;;;;;;10.07;4.85;;;11.10;97.80;;;;;;5094913;28;20059;-49
2022/04/29 10:31:29;;;;;;;9.70;4.72;;;11.20;96.90;;;;;;5094816;28;20040;-51
2022/04/29 10:34:14;;;;;;;10.85;4.35;;;11.10;97.80;;;;;;5094953;28;20044;-51
2022/04/29 10:36:46;;;;;;;11.80;4.68;;;11.10;97.80;;;;;;5094621;28;20053;-51
2022/04/29 10:39:18;;;;;;;10.00;3.95;;;11.20;97.50;;;;;;5094787;28;20044;-52
2022/04/29 10:42:01;;;;;;;7.85;3.75;;;11.20;97.30;;;;;;5093796;28;20048;-51
2022/04/29 10:44:28;;;;;;;6.65;3.65;;;11.20;97.40;;;;;;5094469;28;20401;-51
2022/04/29 10:46:53;;;;;;;11.10;6.18;;;11.10;97.50;;;;;;5094758;28;20052;-52
2022/04/29 10:49:24;;;;;;;7.43;4.30;;;11.10;97.40;;;;;;5094403;28;20036;-51
2022/04/29 10:52:01;;;;;;;6.45;3.58;;;11.00;97.30;;;;;;5094624;28;20036;-51
2022/04/29 10:54:33;;;;;;;6.25;3.67;;;11.00;97.90;;;;;;5094573;28;20097;-52
2022/04/29 10:57:04;;;;;;;8.25;4.70;;;11.10;97.60;;;;;;5094189;28;20040;-50
2022/04/29 11:00:00;;;;;;;10.95;4.32;;;11.10;97.70;;;;;;5094269;28;20120;-51
2022/04/29 11:02:35;;;;;;;10.43;3.63;;;11.10;97.90;;;;;;5094515;28;20036;-51
2022/04/29 11:05:02;;;;;;;7.60;4.22;;;11.20;97.20;;;;;;5094185;28;20458;-52
2022/04/29 11:07:44;;;;;;;15.13;12.13;;;11.30;96.70;;;;;;5093914;28;20039;-51
2022/04/29 11:10:18;;;;;;;10.23;5.60;;;11.20;96.80;;;;;;5092083;28;20120;-50
2022/04/29 11:12:56;;;;;;;9.93;4.30;;;11.20;97.30;;;;;;5094288;28;20079;-51
2022/04/29 11:15:23;;;;;;;12.48;4.45;;;11.20;97.80;;;;;;5094227;28;20040;-52
2022/04/29 11:17:49;;;;;;;9.55;4.15;;;11.30;97.40;;;;;;5093599;28;20036;-51
2022/04/29 11:20:20;;;;;;;7.47;3.70;;;11.40;97.00;;;;;;5094121;28;20081;-48
2022/04/29 11:26:10;;;;;;;7.07;4.00;;;11.50;96.30;;;;;;5097248;28;20051;-51
2022/04/29 11:28:36;;;;;;;9.68;3.60;;;11.40;96.80;;;;;;5094234;28;20062;-51
2022/04/29 11:31:07;;;;;;;10.38;3.88;;;11.20;97.30;;;;;;5097065;28;20047;-52
2022/04/29 11:33:33;;;;;;;5.75;4.03;;;11.20;97.30;;;;;;5097836;28;20032;-51
2022/04/29 11:36:07;;;;;;;9.35;3.30;;;11.30;97.50;;;;;;5097407;28;20087;-52
2022/04/29 11:38:41;;;;;;;5.60;3.47;;;11.30;96.90;;;;;;5096805;28;20505;-51
2022/04/29 11:41:07;;;;;;;8.55;3.50;;;11.30;97.40;;;;;;5096190;28;20035;-52
2022/04/29 11:43:33;;;;;;;7.90;3.90;;;11.30;97.50;;;;;;5097675;28;20417;-51
2022/04/29 11:46:01;;;;;;;5.10;3.38;;;11.30;98.00;;;;;;5096777;28;20055;-52
2022/04/29 11:48:27;;;;;;;7.90;3.70;;;11.20;98.00;;;;;;5096761;28;20043;-52
2022/04/29 11:50:57;;;;;;;6.05;3.30;;;11.20;98.30;;;;;;5096605;28;20044;-51
2022/04/29 11:53:23;;;;;;;14.50;4.50;;;11.20;98.80;;;;;;5095682;28;20050;-48
2022/04/29 11:55:52;;;;;;;7.13;3.08;;;11.30;97.60;;;;;;5095525;28;20036;-52
2022/04/29 11:58:17;;;;;;;10.85;3.78;;;11.20;97.80;;;;;;5095258;28;20036;-51
2022/04/29 12:00:51;;;;;;;6.50;3.70;;;11.20;98.00;;;;;;5094246;28;20124;-51
2022/04/29 12:03:25;;;;;;;13.05;4.20;;;11.30;98.00;;;;;;5094261;28;20550;-51
2022/04/29 12:05:51;;;;;;;11.95;5.50;;;11.30;97.80;;;;;;5094395;28;20035;-49
2022/04/29 12:08:17;;;;;;;10.63;3.97;;;11.20;98.10;;;;;;5094380;28;20032;-51
2022/04/29 12:10:45;;;;;;;7.25;4.03;;;11.30;97.80;;;;;;5094926;28;20040;-52
2022/04/29 12:13:11;;;;;;;11.45;5.03;;;11.40;97.30;;;;;;5094049;28;20032;-51
2022/04/29 12:15:39;;;;;;;7.00;3.83;;;11.30;97.60;;;;;;5092263;28;20044;-51
2022/04/29 12:18:07;;;;;;;9.45;4.53;;;11.40;96.80;;;;;;5092597;28;20035;-50
2022/04/29 12:20:32;;;;;;;8.52;4.10;;;11.40;97.10;;;;;;5093107;28;20047;-51
2022/04/29 12:23:11;;;;;;;11.75;4.28;;;11.40;97.10;;;;;;5092875;28;20043;-50
2022/04/29 12:25:41;;;;;;;12.45;4.70;;;11.60;96.30;;;;;;5092769;28;20126;-51
2022/04/29 12:28:26;;;;;;;7.72;4.45;;;11.60;96.70;;;;;;5092657;28;20040;-52
2022/04/29 12:37:00;;;;;;;11.38;4.80;;;11.70;95.70;;;;;;5092646;28;20119;-51
2022/04/29 12:39:49;;;;;;;9.45;5.07;;;11.80;95.10;;;;;;5092289;28;20040;-51
2022/04/29 12:42:17;;;;;;;8.95;4.40;;;11.70;95.10;;;;;;5092513;28;20055;-51
2022/04/29 12:47:49;;;;;;;8.27;4.78;;;11.60;95.20;;;;;;5092404;28;20039;-51
2022/04/29 12:50:28;;;;;;;6.72;4.47;;;11.60;95.60;;;;;;5092268;28;20028;-52
2022/04/29 12:53:03;;;;;;;11.15;5.32;;;11.70;95.70;;;;;;5092420;28;20051;-51
2022/04/29 12:55:31;;;;;;;11.63;4.82;;;11.70;95.00;;;;;;5084768;28;20448;-51
2022/04/29 12:58:07;;;;;;;12.93;4.93;;;11.60;95.80;;;;;;5083493;28;20040;-51
2022/04/29 13:00:33;;;;;;;11.55;5.28;;;11.60;96.00;;;;;;5092179;28;20494;-51
2022/04/29 13:03:07;;;;;;;9.15;5.97;;;11.60;95.30;;;;;;5092137;28;20040;-51
2022/04/29 13:05:34;;;;;;;7.63;5.30;;;11.60;95.20;;;;;;5092065;28;20040;-51
2022/04/29 13:08:01;;;;;;;8.57;5.05;;;11.60;94.80;;;;;;5091761;28;20046;-51
2022/04/29 13:10:27;;;;;;;10.82;5.18;;;11.50;95.50;;;;;;5090512;28;20048;-51
2022/04/29 13:12:53;;;;;;;12.02;5.65;;;11.60;95.20;;;;;;5092161;28;20024;-52
2022/04/29 13:15:19;;;;;;;7.03;4.72;;;11.50;95.70;;;;;;5092061;28;20071;-51
2022/04/29 13:17:44;;;;;;;12.07;5.95;;;11.60;95.20;;;;;;5091766;28;20402;-51
2022/04/29 13:20:11;;;;;;;7.95;5.28;;;11.50;95.50;;;;;;5092093;28;20374;-52
2022/04/29 13:22:37;;;;;;;13.55;6.70;;;11.60;94.70;;;;;;5091771;28;20054;-52
2022/04/29 13:25:04;;;;;;;10.65;5.68;;;11.50;95.10;;;;;;5092066;28;20048;-51